sensor_id;sensor_type;location;lat;lon;timestamp;P1;durP1;ratioP1;P2;durP2;ratioP2
18387;SDS011;9320;50.256;19.026;2023-05-07T00:00:40;21.50;;;16.53;;
18387;SDS011;9320;50.256;19.026;2023-05-07T00:03:08;25.87;;;17.17;;
18387;SDS011;9320;50.256;19.026;2023-05-07T00:05:37;30.47;;;21.23;;
18387;SDS011;9320;50.256;19.026;2023-05-07T00:08:06;32.93;;;22.27;;
18387;SDS011;9320;50.256;19.026;2023-05-07T00:10:35;33.53;;;22.90;;
18387;SDS011;9320;50.256;19.026;2023-05-07T00:13:03;27.53;;;19.70;;
18387;SDS011;9320;50.256;19.026;2023-05-07T00:15:31;30.17;;;17.60;;
18387;SDS011;9320;50.256;19.026;2023-05-07T00:17:59;23.70;;;17.07;;
18387;SDS011;9320;50.256;19.026;2023-05-07T00:20:27;25.63;;;17.87;;
18387;SDS011;9320;50.256;19.026;2023-05-07T00:22:55;25.90;;;16.53;;
18387;SDS011;9320;50.256;19.026;2023-05-07T00:25:23;26.30;;;16.17;;
18387;SDS011;9320;50.256;19.026;2023-05-07T00:27:52;27.13;;;16.73;;
18387;SDS011;9320;50.256;19.026;2023-05-07T00:30:20;26.63;;;17.10;;
18387;SDS011;9320;50.256;19.026;2023-05-07T00:32:48;26.97;;;16.90;;
18387;SDS011;9320;50.256;19.026;2023-05-07T00:35:17;25.77;;;16.10;;
18387;SDS011;9320;50.256;19.026;2023-05-07T00:37:45;25.00;;;16.07;;
18387;SDS011;9320;50.256;19.026;2023-05-07T00:40:14;25.10;;;15.97;;
18387;SDS011;9320;50.256;19.026;2023-05-07T00:42:42;22.53;;;15.40;;
18387;SDS011;9320;50.256;19.026;2023-05-07T00:45:14;26.77;;;16.17;;
18387;SDS011;9320;50.256;19.026;2023-05-07T00:47:43;25.00;;;15.80;;
18387;SDS011;9320;50.256;19.026;2023-05-07T00:50:11;23.33;;;15.77;;
18387;SDS011;9320;50.256;19.026;2023-05-07T00:52:40;26.50;;;15.97;;
18387;SDS011;9320;50.256;19.026;2023-05-07T00:55:09;25.17;;;15.10;;
18387;SDS011;9320;50.256;19.026;2023-05-07T00:57:37;25.17;;;16.83;;
18387;SDS011;9320;50.256;19.026;2023-05-07T01:00:07;25.03;;;16.63;;
18387;SDS011;9320;50.256;19.026;2023-05-07T01:02:38;24.27;;;15.97;;
18387;SDS011;9320;50.256;19.026;2023-05-07T01:05:07;26.27;;;16.43;;
18387;SDS011;9320;50.256;19.026;2023-05-07T01:07:38;25.43;;;15.93;;
18387;SDS011;9320;50.256;19.026;2023-05-07T01:10:08;24.77;;;14.80;;
18387;SDS011;9320;50.256;19.026;2023-05-07T01:12:38;21.23;;;13.40;;
18387;SDS011;9320;50.256;19.026;2023-05-07T01:15:08;21.33;;;13.70;;
18387;SDS011;9320;50.256;19.026;2023-05-07T01:17:38;22.57;;;14.07;;
18387;SDS011;9320;50.256;19.026;2023-05-07T01:20:09;19.97;;;12.90;;
18387;SDS011;9320;50.256;19.026;2023-05-07T01:22:40;18.37;;;11.73;;
18387;SDS011;9320;50.256;19.026;2023-05-07T01:25:08;21.30;;;12.10;;
18387;SDS011;9320;50.256;19.026;2023-05-07T01:27:36;20.37;;;13.20;;
18387;SDS011;9320;50.256;19.026;2023-05-07T01:30:04;19.43;;;13.10;;
18387;SDS011;9320;50.256;19.026;2023-05-07T01:32:35;17.47;;;12.20;;
18387;SDS011;9320;50.256;19.026;2023-05-07T01:35:09;15.47;;;11.20;;
18387;SDS011;9320;50.256;19.026;2023-05-07T01:37:40;16.50;;;11.73;;
18387;SDS011;9320;50.256;19.026;2023-05-07T01:40:09;17.57;;;11.83;;
18387;SDS011;9320;50.256;19.026;2023-05-07T01:42:37;19.93;;;12.37;;
18387;SDS011;9320;50.256;19.026;2023-05-07T01:45:07;20.47;;;11.70;;
18387;SDS011;9320;50.256;19.026;2023-05-07T01:47:35;17.70;;;11.97;;
18387;SDS011;9320;50.256;19.026;2023-05-07T01:50:05;18.67;;;12.63;;
18387;SDS011;9320;50.256;19.026;2023-05-07T01:52:35;18.20;;;12.27;;
18387;SDS011;9320;50.256;19.026;2023-05-07T01:55:06;16.93;;;11.73;;
18387;SDS011;9320;50.256;19.026;2023-05-07T01:57:35;17.30;;;11.43;;
18387;SDS011;9320;50.256;19.026;2023-05-07T02:00:03;15.87;;;11.40;;
18387;SDS011;9320;50.256;19.026;2023-05-07T02:02:32;15.43;;;10.80;;
18387;SDS011;9320;50.256;19.026;2023-05-07T02:05:00;14.73;;;10.83;;
18387;SDS011;9320;50.256;19.026;2023-05-07T02:07:29;12.57;;;9.90;;
18387;SDS011;9320;50.256;19.026;2023-05-07T02:09:57;11.43;;;9.83;;
18387;SDS011;9320;50.256;19.026;2023-05-07T02:12:26;12.50;;;9.37;;
18387;SDS011;9320;50.256;19.026;2023-05-07T02:14:54;11.37;;;9.60;;
18387;SDS011;9320;50.256;19.026;2023-05-07T02:17:22;13.60;;;9.90;;
18387;SDS011;9320;50.256;19.026;2023-05-07T02:19:50;13.13;;;10.37;;
18387;SDS011;9320;50.256;19.026;2023-05-07T02:22:18;11.13;;;9.83;;
18387;SDS011;9320;50.256;19.026;2023-05-07T02:24:46;12.13;;;10.07;;
18387;SDS011;9320;50.256;19.026;2023-05-07T02:27:15;12.03;;;9.00;;
18387;SDS011;9320;50.256;19.026;2023-05-07T02:29:44;12.60;;;10.07;;
18387;SDS011;9320;50.256;19.026;2023-05-07T02:32:12;11.07;;;9.77;;
18387;SDS011;9320;50.256;19.026;2023-05-07T02:34:41;13.67;;;9.50;;
18387;SDS011;9320;50.256;19.026;2023-05-07T02:37:09;10.93;;;9.60;;
18387;SDS011;9320;50.256;19.026;2023-05-07T02:39:37;12.07;;;9.70;;
18387;SDS011;9320;50.256;19.026;2023-05-07T02:42:05;11.20;;;8.50;;
18387;SDS011;9320;50.256;19.026;2023-05-07T02:44:33;9.93;;;8.93;;
18387;SDS011;9320;50.256;19.026;2023-05-07T02:47:03;10.60;;;8.67;;
18387;SDS011;9320;50.256;19.026;2023-05-07T02:49:34;9.77;;;8.77;;
18387;SDS011;9320;50.256;19.026;2023-05-07T02:52:02;10.07;;;8.50;;
18387;SDS011;9320;50.256;19.026;2023-05-07T02:54:30;9.10;;;8.20;;
18387;SDS011;9320;50.256;19.026;2023-05-07T02:56:58;8.93;;;7.93;;
18387;SDS011;9320;50.256;19.026;2023-05-07T02:59:27;9.20;;;8.30;;
18387;SDS011;9320;50.256;19.026;2023-05-07T03:01:55;9.40;;;8.50;;
18387;SDS011;9320;50.256;19.026;2023-05-07T03:04:24;9.00;;;8.10;;
18387;SDS011;9320;50.256;19.026;2023-05-07T03:06:52;9.70;;;8.80;;
18387;SDS011;9320;50.256;19.026;2023-05-07T03:09:20;10.17;;;8.60;;
18387;SDS011;9320;50.256;19.026;2023-05-07T03:11:48;9.53;;;8.43;;
18387;SDS011;9320;50.256;19.026;2023-05-07T03:14:16;9.50;;;8.23;;
18387;SDS011;9320;50.256;19.026;2023-05-07T03:16:44;8.60;;;7.70;;
18387;SDS011;9320;50.256;19.026;2023-05-07T03:19:12;9.03;;;8.10;;
18387;SDS011;9320;50.256;19.026;2023-05-07T03:21:42;9.20;;;8.20;;
18387;SDS011;9320;50.256;19.026;2023-05-07T03:24:10;8.73;;;7.73;;
18387;SDS011;9320;50.256;19.026;2023-05-07T03:26:38;9.33;;;8.17;;
18387;SDS011;9320;50.256;19.026;2023-05-07T03:29:06;8.70;;;7.80;;
18387;SDS011;9320;50.256;19.026;2023-05-07T03:31:34;8.60;;;7.70;;
18387;SDS011;9320;50.256;19.026;2023-05-07T03:34:02;8.83;;;7.80;;
18387;SDS011;9320;50.256;19.026;2023-05-07T03:36:30;8.00;;;7.30;;
18387;SDS011;9320;50.256;19.026;2023-05-07T03:38:59;8.80;;;7.67;;
18387;SDS011;9320;50.256;19.026;2023-05-07T03:41:27;8.20;;;7.50;;
18387;SDS011;9320;50.256;19.026;2023-05-07T03:43:56;8.60;;;7.80;;
18387;SDS011;9320;50.256;19.026;2023-05-07T03:46:24;8.50;;;7.60;;
18387;SDS011;9320;50.256;19.026;2023-05-07T03:48:52;8.80;;;7.37;;
18387;SDS011;9320;50.256;19.026;2023-05-07T03:51:20;9.87;;;8.97;;
18387;SDS011;9320;50.256;19.026;2023-05-07T03:53:48;8.83;;;7.87;;
18387;SDS011;9320;50.256;19.026;2023-05-07T03:56:20;8.30;;;7.60;;
18387;SDS011;9320;50.256;19.026;2023-05-07T03:58:48;9.77;;;8.00;;
18387;SDS011;9320;50.256;19.026;2023-05-07T04:01:16;9.13;;;8.33;;
18387;SDS011;9320;50.256;19.026;2023-05-07T04:03:44;9.33;;;8.37;;
18387;SDS011;9320;50.256;19.026;2023-05-07T04:06:12;9.23;;;8.17;;
18387;SDS011;9320;50.256;19.026;2023-05-07T04:08:41;9.00;;;8.10;;
18387;SDS011;9320;50.256;19.026;2023-05-07T04:11:08;8.40;;;7.60;;
18387;SDS011;9320;50.256;19.026;2023-05-07T04:13:38;9.00;;;8.10;;
18387;SDS011;9320;50.256;19.026;2023-05-07T04:16:06;8.27;;;7.47;;
18387;SDS011;9320;50.256;19.026;2023-05-07T04:18:35;9.27;;;8.37;;
18387;SDS011;9320;50.256;19.026;2023-05-07T04:21:03;9.60;;;8.63;;
18387;SDS011;9320;50.256;19.026;2023-05-07T04:23:31;8.10;;;7.40;;
18387;SDS011;9320;50.256;19.026;2023-05-07T04:25:59;9.53;;;8.60;;
18387;SDS011;9320;50.256;19.026;2023-05-07T04:28:27;9.60;;;8.70;;
18387;SDS011;9320;50.256;19.026;2023-05-07T04:30:57;8.73;;;7.93;;
18387;SDS011;9320;50.256;19.026;2023-05-07T04:33:25;10.53;;;9.53;;
18387;SDS011;9320;50.256;19.026;2023-05-07T04:35:53;11.37;;;10.37;;
18387;SDS011;9320;50.256;19.026;2023-05-07T04:38:21;16.20;;;14.13;;
18387;SDS011;9320;50.256;19.026;2023-05-07T04:40:49;17.77;;;15.50;;
18387;SDS011;9320;50.256;19.026;2023-05-07T04:43:17;19.10;;;15.23;;
18387;SDS011;9320;50.256;19.026;2023-05-07T04:45:45;14.77;;;12.50;;
18387;SDS011;9320;50.256;19.026;2023-05-07T04:48:16;18.43;;;16.00;;
18387;SDS011;9320;50.256;19.026;2023-05-07T04:50:46;16.20;;;14.50;;
18387;SDS011;9320;50.256;19.026;2023-05-07T04:53:15;18.70;;;16.30;;
18387;SDS011;9320;50.256;19.026;2023-05-07T04:55:43;17.93;;;15.73;;
18387;SDS011;9320;50.256;19.026;2023-05-07T04:58:12;17.70;;;15.10;;
18387;SDS011;9320;50.256;19.026;2023-05-07T05:00:40;17.10;;;15.27;;
18387;SDS011;9320;50.256;19.026;2023-05-07T05:03:10;20.03;;;16.80;;
18387;SDS011;9320;50.256;19.026;2023-05-07T05:05:39;18.00;;;15.83;;
18387;SDS011;9320;50.256;19.026;2023-05-07T05:08:07;15.60;;;13.93;;
18387;SDS011;9320;50.256;19.026;2023-05-07T05:10:35;12.40;;;11.20;;
18387;SDS011;9320;50.256;19.026;2023-05-07T05:13:03;10.43;;;9.33;;
18387;SDS011;9320;50.256;19.026;2023-05-07T05:15:31;11.40;;;9.13;;
18387;SDS011;9320;50.256;19.026;2023-05-07T05:17:59;9.87;;;8.10;;
18387;SDS011;9320;50.256;19.026;2023-05-07T05:20:28;9.57;;;7.90;;
18387;SDS011;9320;50.256;19.026;2023-05-07T05:22:57;8.90;;;7.50;;
18387;SDS011;9320;50.256;19.026;2023-05-07T05:25:25;10.07;;;8.87;;
18387;SDS011;9320;50.256;19.026;2023-05-07T05:27:53;8.90;;;8.00;;
18387;SDS011;9320;50.256;19.026;2023-05-07T05:30:21;10.70;;;9.60;;
18387;SDS011;9320;50.256;19.026;2023-05-07T05:32:49;10.43;;;9.37;;
18387;SDS011;9320;50.256;19.026;2023-05-07T05:35:18;11.07;;;9.97;;
18387;SDS011;9320;50.256;19.026;2023-05-07T05:37:46;16.17;;;12.70;;
18387;SDS011;9320;50.256;19.026;2023-05-07T05:40:15;14.63;;;13.10;;
18387;SDS011;9320;50.256;19.026;2023-05-07T05:42:44;11.80;;;10.60;;
18387;SDS011;9320;50.256;19.026;2023-05-07T05:45:12;9.50;;;8.50;;
18387;SDS011;9320;50.256;19.026;2023-05-07T05:47:41;8.90;;;7.43;;
18387;SDS011;9320;50.256;19.026;2023-05-07T05:50:09;8.33;;;7.53;;
18387;SDS011;9320;50.256;19.026;2023-05-07T05:52:37;9.20;;;8.30;;
18387;SDS011;9320;50.256;19.026;2023-05-07T05:55:07;7.93;;;7.23;;
18387;SDS011;9320;50.256;19.026;2023-05-07T05:57:37;8.57;;;7.40;;
18387;SDS011;9320;50.256;19.026;2023-05-07T06:00:06;8.03;;;7.23;;
18387;SDS011;9320;50.256;19.026;2023-05-07T06:02:35;7.37;;;6.77;;
18387;SDS011;9320;50.256;19.026;2023-05-07T06:05:04;9.70;;;8.80;;
18387;SDS011;9320;50.256;19.026;2023-05-07T06:07:32;10.60;;;9.50;;
18387;SDS011;9320;50.256;19.026;2023-05-07T06:10:00;9.23;;;8.43;;
18387;SDS011;9320;50.256;19.026;2023-05-07T06:12:28;7.40;;;6.80;;
18387;SDS011;9320;50.256;19.026;2023-05-07T06:14:58;9.10;;;8.20;;
18387;SDS011;9320;50.256;19.026;2023-05-07T06:17:26;8.83;;;8.03;;
18387;SDS011;9320;50.256;19.026;2023-05-07T06:19:54;7.67;;;7.00;;
18387;SDS011;9320;50.256;19.026;2023-05-07T06:22:22;9.53;;;8.53;;
18387;SDS011;9320;50.256;19.026;2023-05-07T06:24:50;8.87;;;8.10;;
18387;SDS011;9320;50.256;19.026;2023-05-07T06:27:18;8.27;;;7.30;;
18387;SDS011;9320;50.256;19.026;2023-05-07T06:29:47;8.27;;;7.67;;
18387;SDS011;9320;50.256;19.026;2023-05-07T06:32:17;8.87;;;7.97;;
18387;SDS011;9320;50.256;19.026;2023-05-07T06:34:46;8.57;;;7.77;;
18387;SDS011;9320;50.256;19.026;2023-05-07T06:37:14;7.80;;;7.20;;
18387;SDS011;9320;50.256;19.026;2023-05-07T06:39:42;9.33;;;8.20;;
18387;SDS011;9320;50.256;19.026;2023-05-07T06:42:10;9.77;;;8.60;;
18387;SDS011;9320;50.256;19.026;2023-05-07T06:44:38;9.97;;;9.00;;
18387;SDS011;9320;50.256;19.026;2023-05-07T06:47:05;8.37;;;7.63;;
18387;SDS011;9320;50.256;19.026;2023-05-07T06:49:35;12.07;;;10.70;;
18387;SDS011;9320;50.256;19.026;2023-05-07T06:52:03;10.87;;;9.77;;
18387;SDS011;9320;50.256;19.026;2023-05-07T06:54:31;15.00;;;13.40;;
18387;SDS011;9320;50.256;19.026;2023-05-07T06:56:59;13.60;;;12.20;;
18387;SDS011;9320;50.256;19.026;2023-05-07T06:59:27;13.60;;;12.20;;
18387;SDS011;9320;50.256;19.026;2023-05-07T07:01:55;10.80;;;9.70;;
18387;SDS011;9320;50.256;19.026;2023-05-07T07:04:24;13.37;;;11.97;;
18387;SDS011;9320;50.256;19.026;2023-05-07T07:06:54;14.53;;;13.03;;
18387;SDS011;9320;50.256;19.026;2023-05-07T07:09:24;11.83;;;9.37;;
18387;SDS011;9320;50.256;19.026;2023-05-07T07:11:52;9.10;;;8.10;;
18387;SDS011;9320;50.256;19.026;2023-05-07T07:14:20;8.43;;;7.63;;
18387;SDS011;9320;50.256;19.026;2023-05-07T07:16:48;9.90;;;9.00;;
18387;SDS011;9320;50.256;19.026;2023-05-07T07:19:17;8.60;;;7.80;;
18387;SDS011;9320;50.256;19.026;2023-05-07T07:21:46;8.83;;;8.03;;
18387;SDS011;9320;50.256;19.026;2023-05-07T07:24:15;8.43;;;7.63;;
18387;SDS011;9320;50.256;19.026;2023-05-07T07:26:47;7.93;;;7.23;;
18387;SDS011;9320;50.256;19.026;2023-05-07T07:29:15;9.80;;;8.90;;
18387;SDS011;9320;50.256;19.026;2023-05-07T07:31:44;10.27;;;9.37;;
18387;SDS011;9320;50.256;19.026;2023-05-07T07:34:13;8.63;;;7.83;;
18387;SDS011;9320;50.256;19.026;2023-05-07T07:36:41;11.33;;;10.20;;
18387;SDS011;9320;50.256;19.026;2023-05-07T07:39:12;10.10;;;9.20;;
18387;SDS011;9320;50.256;19.026;2023-05-07T07:41:41;10.20;;;9.10;;
18387;SDS011;9320;50.256;19.026;2023-05-07T07:44:09;9.93;;;9.03;;
18387;SDS011;9320;50.256;19.026;2023-05-07T07:46:41;8.87;;;8.07;;
18387;SDS011;9320;50.256;19.026;2023-05-07T07:49:10;9.43;;;8.60;;
18387;SDS011;9320;50.256;19.026;2023-05-07T07:51:38;11.27;;;10.17;;
18387;SDS011;9320;50.256;19.026;2023-05-07T07:54:06;11.17;;;10.17;;
18387;SDS011;9320;50.256;19.026;2023-05-07T07:56:34;11.27;;;10.27;;
18387;SDS011;9320;50.256;19.026;2023-05-07T07:59:03;9.97;;;9.13;;
18387;SDS011;9320;50.256;19.026;2023-05-07T08:01:31;9.00;;;8.20;;
18387;SDS011;9320;50.256;19.026;2023-05-07T08:03:59;7.90;;;7.30;;
18387;SDS011;9320;50.256;19.026;2023-05-07T08:06:29;8.00;;;7.33;;
18387;SDS011;9320;50.256;19.026;2023-05-07T08:08:57;9.40;;;8.50;;
18387;SDS011;9320;50.256;19.026;2023-05-07T08:11:26;11.20;;;10.20;;
18387;SDS011;9320;50.256;19.026;2023-05-07T08:13:54;10.73;;;9.73;;
18387;SDS011;9320;50.256;19.026;2023-05-07T08:16:24;10.93;;;9.93;;
18387;SDS011;9320;50.256;19.026;2023-05-07T08:18:53;10.77;;;9.77;;
18387;SDS011;9320;50.256;19.026;2023-05-07T08:21:21;12.33;;;11.23;;
18387;SDS011;9320;50.256;19.026;2023-05-07T08:23:49;13.33;;;12.13;;
18387;SDS011;9320;50.256;19.026;2023-05-07T08:26:17;12.47;;;11.10;;
18387;SDS011;9320;50.256;19.026;2023-05-07T08:28:46;9.43;;;8.63;;
18387;SDS011;9320;50.256;19.026;2023-05-07T08:31:14;8.70;;;7.93;;
18387;SDS011;9320;50.256;19.026;2023-05-07T08:33:44;9.07;;;8.17;;
18387;SDS011;9320;50.256;19.026;2023-05-07T08:36:12;9.00;;;7.17;;
18387;SDS011;9320;50.256;19.026;2023-05-07T08:38:40;8.87;;;8.07;;
18387;SDS011;9320;50.256;19.026;2023-05-07T08:41:10;10.00;;;9.20;;
18387;SDS011;9320;50.256;19.026;2023-05-07T08:43:38;10.90;;;9.90;;
18387;SDS011;9320;50.256;19.026;2023-05-07T08:46:09;9.77;;;8.97;;
18387;SDS011;9320;50.256;19.026;2023-05-07T08:48:38;8.23;;;7.53;;
18387;SDS011;9320;50.256;19.026;2023-05-07T08:51:08;8.40;;;7.70;;
18387;SDS011;9320;50.256;19.026;2023-05-07T08:53:40;12.20;;;11.10;;
18387;SDS011;9320;50.256;19.026;2023-05-07T08:56:08;11.80;;;10.77;;
18387;SDS011;9320;50.256;19.026;2023-05-07T08:58:37;11.83;;;10.73;;
18387;SDS011;9320;50.256;19.026;2023-05-07T09:01:06;10.40;;;9.50;;
18387;SDS011;9320;50.256;19.026;2023-05-07T09:03:36;8.37;;;7.67;;
18387;SDS011;9320;50.256;19.026;2023-05-07T09:06:05;9.23;;;8.33;;
18387;SDS011;9320;50.256;19.026;2023-05-07T09:08:35;10.27;;;9.33;;
18387;SDS011;9320;50.256;19.026;2023-05-07T09:11:03;9.77;;;8.80;;
18387;SDS011;9320;50.256;19.026;2023-05-07T09:13:31;10.33;;;9.33;;
18387;SDS011;9320;50.256;19.026;2023-05-07T09:16:06;9.80;;;8.80;;
18387;SDS011;9320;50.256;19.026;2023-05-07T09:18:41;10.60;;;9.60;;
18387;SDS011;9320;50.256;19.026;2023-05-07T09:21:11;12.17;;;10.97;;
18387;SDS011;9320;50.256;19.026;2023-05-07T09:23:42;14.40;;;13.00;;
18387;SDS011;9320;50.256;19.026;2023-05-07T09:26:10;12.10;;;10.90;;
18387;SDS011;9320;50.256;19.026;2023-05-07T09:28:39;10.67;;;9.67;;
18387;SDS011;9320;50.256;19.026;2023-05-07T09:31:08;11.23;;;9.83;;
18387;SDS011;9320;50.256;19.026;2023-05-07T09:33:37;12.50;;;11.33;;
18387;SDS011;9320;50.256;19.026;2023-05-07T09:36:06;12.27;;;10.90;;
18387;SDS011;9320;50.256;19.026;2023-05-07T09:38:37;10.57;;;9.57;;
18387;SDS011;9320;50.256;19.026;2023-05-07T09:41:06;10.97;;;9.97;;
18387;SDS011;9320;50.256;19.026;2023-05-07T09:43:35;10.40;;;9.40;;
18387;SDS011;9320;50.256;19.026;2023-05-07T09:46:08;9.33;;;8.43;;
18387;SDS011;9320;50.256;19.026;2023-05-07T09:48:39;8.50;;;7.70;;
18387;SDS011;9320;50.256;19.026;2023-05-07T09:51:11;9.10;;;8.40;;
18387;SDS011;9320;50.256;19.026;2023-05-07T09:53:46;8.97;;;7.97;;
18387;SDS011;9320;50.256;19.026;2023-05-07T09:56:15;9.27;;;8.47;;
18387;SDS011;9320;50.256;19.026;2023-05-07T09:58:45;9.83;;;8.43;;
18387;SDS011;9320;50.256;19.026;2023-05-07T10:01:14;9.77;;;8.77;;
18387;SDS011;9320;50.256;19.026;2023-05-07T10:03:48;10.50;;;9.40;;
18387;SDS011;9320;50.256;19.026;2023-05-07T10:06:19;10.40;;;9.50;;
18387;SDS011;9320;50.256;19.026;2023-05-07T10:08:49;9.63;;;8.07;;
18387;SDS011;9320;50.256;19.026;2023-05-07T10:11:19;9.00;;;8.30;;
18387;SDS011;9320;50.256;19.026;2023-05-07T10:13:48;8.97;;;8.27;;
18387;SDS011;9320;50.256;19.026;2023-05-07T10:16:19;9.93;;;8.83;;
18387;SDS011;9320;50.256;19.026;2023-05-07T10:18:48;10.13;;;8.90;;
18387;SDS011;9320;50.256;19.026;2023-05-07T10:21:18;9.87;;;8.90;;
18387;SDS011;9320;50.256;19.026;2023-05-07T10:23:49;10.13;;;9.20;;
18387;SDS011;9320;50.256;19.026;2023-05-07T10:26:19;10.00;;;9.00;;
18387;SDS011;9320;50.256;19.026;2023-05-07T10:28:50;9.40;;;8.60;;
18387;SDS011;9320;50.256;19.026;2023-05-07T10:31:27;10.10;;;9.17;;
18387;SDS011;9320;50.256;19.026;2023-05-07T10:34:20;9.60;;;8.70;;
18387;SDS011;9320;50.256;19.026;2023-05-07T10:36:52;11.73;;;10.63;;
18387;SDS011;9320;50.256;19.026;2023-05-07T10:39:23;13.53;;;12.07;;
18387;SDS011;9320;50.256;19.026;2023-05-07T10:41:52;13.07;;;11.77;;
18387;SDS011;9320;50.256;19.026;2023-05-07T10:44:26;12.70;;;11.40;;
18387;SDS011;9320;50.256;19.026;2023-05-07T10:47:03;11.77;;;10.10;;
18387;SDS011;9320;50.256;19.026;2023-05-07T10:49:32;11.50;;;9.53;;
18387;SDS011;9320;50.256;19.026;2023-05-07T10:54:45;10.50;;;9.50;;
18387;SDS011;9320;50.256;19.026;2023-05-07T11:00:01;10.87;;;9.77;;
18387;SDS011;9320;50.256;19.026;2023-05-07T11:05:33;13.73;;;12.33;;
18387;SDS011;9320;50.256;19.026;2023-05-07T11:08:04;13.57;;;12.27;;
18387;SDS011;9320;50.256;19.026;2023-05-07T11:10:50;13.10;;;11.70;;
18387;SDS011;9320;50.256;19.026;2023-05-07T11:16:18;10.70;;;9.60;;
18387;SDS011;9320;50.256;19.026;2023-05-07T11:18:47;10.23;;;9.23;;
18387;SDS011;9320;50.256;19.026;2023-05-07T11:21:32;10.30;;;9.37;;
18387;SDS011;9320;50.256;19.026;2023-05-07T11:24:01;10.13;;;9.10;;
18387;SDS011;9320;50.256;19.026;2023-05-07T11:26:41;12.20;;;10.13;;
18387;SDS011;9320;50.256;19.026;2023-05-07T11:29:12;11.63;;;10.43;;
18387;SDS011;9320;50.256;19.026;2023-05-07T11:31:43;12.20;;;11.10;;
18387;SDS011;9320;50.256;19.026;2023-05-07T11:34:15;10.53;;;9.50;;
18387;SDS011;9320;50.256;19.026;2023-05-07T11:36:48;11.93;;;10.77;;
18387;SDS011;9320;50.256;19.026;2023-05-07T11:39:23;12.80;;;10.87;;
18387;SDS011;9320;50.256;19.026;2023-05-07T11:41:53;11.00;;;9.90;;
18387;SDS011;9320;50.256;19.026;2023-05-07T11:44:22;11.07;;;9.87;;
18387;SDS011;9320;50.256;19.026;2023-05-07T11:46:50;10.80;;;9.70;;
18387;SDS011;9320;50.256;19.026;2023-05-07T11:49:18;11.20;;;10.10;;
18387;SDS011;9320;50.256;19.026;2023-05-07T11:51:46;12.23;;;10.97;;
18387;SDS011;9320;50.256;19.026;2023-05-07T11:54:17;15.37;;;10.57;;
18387;SDS011;9320;50.256;19.026;2023-05-07T11:56:45;11.90;;;10.70;;
18387;SDS011;9320;50.256;19.026;2023-05-07T11:59:18;13.27;;;11.93;;
18387;SDS011;9320;50.256;19.026;2023-05-07T12:01:46;12.57;;;11.37;;
18387;SDS011;9320;50.256;19.026;2023-05-07T12:04:18;11.90;;;10.70;;
18387;SDS011;9320;50.256;19.026;2023-05-07T12:06:48;12.27;;;10.97;;
18387;SDS011;9320;50.256;19.026;2023-05-07T12:09:17;12.00;;;10.83;;
18387;SDS011;9320;50.256;19.026;2023-05-07T12:11:45;11.23;;;10.13;;
18387;SDS011;9320;50.256;19.026;2023-05-07T12:14:13;16.00;;;10.67;;
18387;SDS011;9320;50.256;19.026;2023-05-07T12:16:44;11.60;;;10.47;;
18387;SDS011;9320;50.256;19.026;2023-05-07T12:19:13;11.27;;;10.07;;
18387;SDS011;9320;50.256;19.026;2023-05-07T12:21:41;11.00;;;9.70;;
18387;SDS011;9320;50.256;19.026;2023-05-07T12:24:09;10.93;;;9.83;;
18387;SDS011;9320;50.256;19.026;2023-05-07T12:26:38;13.30;;;11.00;;
18387;SDS011;9320;50.256;19.026;2023-05-07T12:29:07;10.87;;;9.77;;
18387;SDS011;9320;50.256;19.026;2023-05-07T12:31:35;11.83;;;10.63;;
18387;SDS011;9320;50.256;19.026;2023-05-07T12:34:04;12.47;;;10.47;;
18387;SDS011;9320;50.256;19.026;2023-05-07T12:36:38;10.77;;;9.63;;
18387;SDS011;9320;50.256;19.026;2023-05-07T12:39:07;12.30;;;11.10;;
18387;SDS011;9320;50.256;19.026;2023-05-07T12:41:36;14.00;;;12.50;;
18387;SDS011;9320;50.256;19.026;2023-05-07T12:44:21;11.90;;;10.70;;
18387;SDS011;9320;50.256;19.026;2023-05-07T12:46:50;12.00;;;10.90;;
18387;SDS011;9320;50.256;19.026;2023-05-07T12:49:20;11.30;;;10.20;;
18387;SDS011;9320;50.256;19.026;2023-05-07T12:51:50;12.97;;;11.60;;
18387;SDS011;9320;50.256;19.026;2023-05-07T12:54:28;10.90;;;9.80;;
18387;SDS011;9320;50.256;19.026;2023-05-07T12:57:00;9.57;;;8.67;;
18387;SDS011;9320;50.256;19.026;2023-05-07T12:59:32;9.90;;;9.00;;
18387;SDS011;9320;50.256;19.026;2023-05-07T13:02:01;10.77;;;8.97;;
18387;SDS011;9320;50.256;19.026;2023-05-07T13:04:31;10.30;;;9.37;;
18387;SDS011;9320;50.256;19.026;2023-05-07T13:06:59;10.50;;;9.50;;
18387;SDS011;9320;50.256;19.026;2023-05-07T13:09:28;10.20;;;9.30;;
18387;SDS011;9320;50.256;19.026;2023-05-07T13:11:57;10.90;;;9.70;;
18387;SDS011;9320;50.256;19.026;2023-05-07T13:14:26;11.93;;;10.40;;
18387;SDS011;9320;50.256;19.026;2023-05-07T13:16:54;12.70;;;10.13;;
18387;SDS011;9320;50.256;19.026;2023-05-07T13:19:22;11.33;;;9.83;;
18387;SDS011;9320;50.256;19.026;2023-05-07T13:21:51;11.13;;;9.97;;
18387;SDS011;9320;50.256;19.026;2023-05-07T13:24:19;10.10;;;9.10;;
18387;SDS011;9320;50.256;19.026;2023-05-07T13:26:47;10.90;;;9.80;;
18387;SDS011;9320;50.256;19.026;2023-05-07T13:29:16;12.13;;;9.97;;
18387;SDS011;9320;50.256;19.026;2023-05-07T13:31:44;11.10;;;10.00;;
18387;SDS011;9320;50.256;19.026;2023-05-07T13:34:15;15.30;;;10.57;;
18387;SDS011;9320;50.256;19.026;2023-05-07T13:36:43;11.90;;;10.63;;
18387;SDS011;9320;50.256;19.026;2023-05-07T13:39:12;13.60;;;11.30;;
18387;SDS011;9320;50.256;19.026;2023-05-07T13:41:40;12.10;;;10.50;;
18387;SDS011;9320;50.256;19.026;2023-05-07T13:44:08;13.33;;;10.03;;
18387;SDS011;9320;50.256;19.026;2023-05-07T13:46:36;12.53;;;10.50;;
18387;SDS011;9320;50.256;19.026;2023-05-07T13:49:04;12.83;;;10.73;;
18387;SDS011;9320;50.256;19.026;2023-05-07T13:51:32;11.87;;;10.57;;
18387;SDS011;9320;50.256;19.026;2023-05-07T13:54:01;10.90;;;9.40;;
18387;SDS011;9320;50.256;19.026;2023-05-07T13:56:30;11.30;;;10.10;;
18387;SDS011;9320;50.256;19.026;2023-05-07T13:58:58;13.10;;;9.63;;
18387;SDS011;9320;50.256;19.026;2023-05-07T14:01:26;11.03;;;9.87;;
18387;SDS011;9320;50.256;19.026;2023-05-07T14:03:55;11.73;;;10.50;;
18387;SDS011;9320;50.256;19.026;2023-05-07T14:06:25;13.27;;;10.90;;
18387;SDS011;9320;50.256;19.026;2023-05-07T14:08:53;11.30;;;10.00;;
18387;SDS011;9320;50.256;19.026;2023-05-07T14:11:24;10.20;;;9.20;;
18387;SDS011;9320;50.256;19.026;2023-05-07T14:13:53;11.83;;;9.07;;
18387;SDS011;9320;50.256;19.026;2023-05-07T14:16:23;11.07;;;10.03;;
18387;SDS011;9320;50.256;19.026;2023-05-07T14:18:51;11.87;;;10.47;;
18387;SDS011;9320;50.256;19.026;2023-05-07T14:21:23;12.47;;;11.17;;
18387;SDS011;9320;50.256;19.026;2023-05-07T14:23:51;12.70;;;11.47;;
18387;SDS011;9320;50.256;19.026;2023-05-07T14:26:19;25.73;;;18.73;;
18387;SDS011;9320;50.256;19.026;2023-05-07T14:28:49;19.40;;;15.37;;
18387;SDS011;9320;50.256;19.026;2023-05-07T14:31:18;19.70;;;15.40;;
18387;SDS011;9320;50.256;19.026;2023-05-07T14:33:46;13.40;;;11.83;;
18387;SDS011;9320;50.256;19.026;2023-05-07T14:36:16;12.70;;;11.40;;
18387;SDS011;9320;50.256;19.026;2023-05-07T14:38:46;11.33;;;10.20;;
18387;SDS011;9320;50.256;19.026;2023-05-07T14:41:15;12.40;;;10.27;;
18387;SDS011;9320;50.256;19.026;2023-05-07T14:43:43;11.37;;;10.13;;
18387;SDS011;9320;50.256;19.026;2023-05-07T14:46:16;11.17;;;10.00;;
18387;SDS011;9320;50.256;19.026;2023-05-07T14:48:46;11.07;;;9.70;;
18387;SDS011;9320;50.256;19.026;2023-05-07T14:51:14;10.77;;;9.77;;
18387;SDS011;9320;50.256;19.026;2023-05-07T14:53:42;11.07;;;9.97;;
18387;SDS011;9320;50.256;19.026;2023-05-07T14:56:10;12.10;;;10.80;;